createdAt,value
2017-03-22T00:00:08.411Z,3.8
2017-03-22T00:00:27.040Z,3.8
2017-03-22T00:00:45.663Z,3.8
2017-03-22T00:01:04.283Z,3.8
2017-03-22T00:01:22.915Z,3.8
2017-03-22T00:01:41.536Z,3.8
2017-03-22T00:02:00.167Z,3.8
2017-03-22T00:02:18.793Z,3.8
2017-03-22T00:02:37.419Z,3.8
2017-03-22T00:02:56.044Z,3.8
2017-03-22T00:03:14.679Z,3.8
2017-03-22T00:03:33.359Z,3.8
2017-03-22T00:03:51.985Z,3.8
2017-03-22T00:04:10.610Z,3.8
2017-03-22T00:04:29.230Z,3.8
2017-03-22T00:04:47.852Z,3.8
2017-03-22T00:05:06.476Z,3.8
2017-03-22T00:05:25.102Z,3.8
2017-03-22T00:05:43.722Z,3.8
2017-03-22T00:06:02.343Z,3.8
2017-03-22T00:06:20.972Z,3.8
2017-03-22T00:06:39.597Z,3.8
2017-03-22T00:06:58.254Z,3.7
2017-03-22T00:07:16.881Z,3.7
2017-03-22T00:07:35.505Z,3.7
2017-03-22T00:07:54.135Z,3.7
2017-03-22T00:08:12.766Z,3.7
2017-03-22T00:08:31.396Z,3.7
2017-03-22T00:08:50.056Z,3.7
2017-03-22T00:09:08.678Z,3.7
2017-03-22T00:09:27.308Z,3.7
2017-03-22T00:09:45.934Z,3.7
2017-03-22T00:10:04.559Z,3.7
2017-03-22T00:10:23.215Z,3.7
2017-03-22T00:10:41.835Z,3.7
2017-03-22T00:11:00.453Z,3.8
2017-03-22T00:11:19.083Z,3.8
2017-03-22T00:11:37.712Z,3.8
2017-03-22T00:11:56.346Z,3.8
2017-03-22T00:12:14.997Z,3.7
2017-03-22T00:12:33.617Z,3.7
2017-03-22T00:12:52.253Z,3.8
2017-03-22T00:13:10.881Z,3.7
2017-03-22T00:13:29.502Z,3.7
2017-03-22T00:13:48.127Z,3.7
2017-03-22T00:14:06.767Z,3.7
2017-03-22T00:14:25.390Z,3.8
2017-03-22T00:14:44.012Z,3.8
2017-03-22T00:15:02.638Z,3.8
2017-03-22T00:15:21.270Z,3.8
2017-03-22T00:15:39.921Z,3.8
2017-03-22T00:15:58.549Z,3.8
2017-03-22T00:16:17.177Z,3.8
2017-03-22T00:16:35.802Z,3.8
2017-03-22T00:16:54.424Z,3.8
2017-03-22T00:17:13.056Z,3.8
2017-03-22T00:17:31.678Z,3.8
2017-03-22T00:17:50.309Z,3.8
2017-03-22T00:18:08.933Z,3.8
2017-03-22T00:18:27.554Z,3.8
2017-03-22T00:18:46.177Z,3.8
2017-03-22T00:19:04.825Z,3.8
2017-03-22T00:19:23.467Z,3.8
2017-03-22T00:19:42.107Z,3.8
2017-03-22T00:20:00.737Z,3.8
2017-03-22T00:20:19.361Z,3.8
2017-03-22T00:20:37.984Z,3.8
2017-03-22T00:20:56.606Z,3.8
2017-03-22T00:21:15.236Z,3.8
2017-03-22T00:21:33.861Z,3.8
2017-03-22T00:21:52.483Z,3.8
2017-03-22T00:22:11.107Z,3.8
2017-03-22T00:22:29.755Z,3.8
2017-03-22T00:22:48.374Z,3.8
2017-03-22T00:23:07.002Z,3.8
2017-03-22T00:23:25.637Z,3.8
2017-03-22T00:23:44.269Z,3.8
2017-03-22T00:24:02.889Z,3.8
2017-03-22T00:24:21.514Z,3.7
2017-03-22T00:24:40.152Z,3.8
2017-03-22T00:24:58.778Z,3.7
2017-03-22T00:25:17.407Z,3.7
2017-03-22T00:25:36.034Z,3.7
2017-03-22T00:25:54.674Z,3.7
2017-03-22T00:26:13.303Z,3.7
2017-03-22T00:26:31.933Z,3.7
2017-03-22T00:26:50.555Z,3.7
2017-03-22T00:27:09.195Z,3.7
2017-03-22T00:27:27.813Z,3.7
2017-03-22T00:27:46.432Z,3.7
2017-03-22T00:28:05.062Z,3.7
2017-03-22T00:28:23.686Z,3.7
2017-03-22T00:28:42.308Z,3.7
2017-03-22T00:29:00.935Z,3.7
2017-03-22T00:29:19.581Z,3.7
2017-03-22T00:29:38.235Z,3.7
2017-03-22T00:29:56.884Z,3.7
2017-03-22T00:30:15.516Z,3.7
2017-03-22T00:30:34.142Z,3.7
2017-03-22T00:30:52.763Z,3.7
2017-03-22T00:31:11.393Z,3.7
2017-03-22T00:31:30.019Z,3.7
2017-03-22T00:31:48.647Z,3.7
2017-03-22T00:32:07.269Z,3.7
2017-03-22T00:32:25.902Z,3.7
2017-03-22T00:32:44.548Z,3.7
2017-03-22T00:33:03.202Z,3.7
2017-03-22T00:33:21.828Z,3.7
2017-03-22T00:33:40.450Z,3.8
2017-03-22T00:33:59.080Z,3.8
2017-03-22T00:34:17.710Z,3.8
2017-03-22T00:34:36.339Z,3.8
2017-03-22T00:34:54.971Z,3.8
2017-03-22T00:35:13.605Z,3.8
2017-03-22T00:35:32.233Z,3.8
2017-03-22T00:35:50.856Z,3.8
2017-03-22T00:36:09.484Z,3.8
2017-03-22T00:36:28.136Z,3.8
2017-03-22T00:36:46.758Z,3.8
2017-03-22T00:37:05.380Z,3.8
2017-03-22T00:37:24.000Z,3.8
2017-03-22T00:37:42.620Z,3.8
2017-03-22T00:38:01.245Z,3.8
2017-03-22T00:38:19.890Z,3.8
2017-03-22T00:38:38.518Z,3.8
2017-03-22T00:38:57.146Z,3.8
2017-03-22T00:39:15.773Z,3.8
2017-03-22T00:39:34.404Z,3.8
2017-03-22T00:39:53.033Z,3.8
2017-03-22T00:40:11.657Z,3.8
2017-03-22T00:40:30.300Z,3.8
2017-03-22T00:40:48.921Z,3.8
2017-03-22T00:41:07.549Z,3.8
2017-03-22T00:41:26.170Z,3.8
2017-03-22T00:41:44.825Z,3.8
2017-03-22T00:42:03.451Z,3.7
2017-03-22T00:42:22.095Z,3.7
2017-03-22T00:42:40.715Z,3.7
2017-03-22T00:42:59.341Z,3.7
2017-03-22T00:43:17.974Z,3.7
2017-03-22T00:43:36.598Z,3.7
2017-03-22T00:43:55.223Z,3.7
2017-03-22T00:44:13.846Z,3.6
2017-03-22T00:44:32.473Z,3.6
2017-03-22T00:44:51.101Z,3.6
2017-03-22T00:45:09.752Z,3.6
2017-03-22T00:45:28.374Z,3.6
2017-03-22T00:45:47.007Z,3.6
2017-03-22T00:46:05.629Z,3.6
2017-03-22T00:46:24.256Z,3.6
2017-03-22T00:46:42.886Z,3.6
2017-03-22T00:47:01.511Z,3.6
2017-03-22T00:47:20.137Z,3.5
2017-03-22T00:47:38.766Z,3.5
2017-03-22T00:47:57.402Z,3.5
2017-03-22T00:48:16.036Z,3.5
2017-03-22T00:48:34.687Z,3.5
2017-03-22T00:48:53.312Z,3.5
2017-03-22T00:49:11.936Z,3.5
2017-03-22T00:49:30.563Z,3.5
2017-03-22T00:49:49.194Z,3.5
2017-03-22T00:50:07.821Z,3.5
2017-03-22T00:50:26.450Z,3.5
2017-03-22T00:50:45.075Z,3.5
2017-03-22T00:51:03.713Z,3.5
2017-03-22T00:51:22.348Z,3.6
2017-03-22T00:51:40.973Z,3.5
2017-03-22T00:51:59.627Z,3.6
2017-03-22T00:52:18.254Z,3.6
2017-03-22T00:52:36.888Z,3.6
2017-03-22T00:52:55.519Z,3.6
2017-03-22T00:53:14.145Z,3.6
2017-03-22T00:53:32.769Z,3.6
2017-03-22T00:53:51.392Z,3.6
2017-03-22T00:54:10.024Z,3.6
2017-03-22T00:54:28.650Z,3.6
2017-03-22T00:54:47.278Z,3.6
2017-03-22T00:55:05.906Z,3.6
2017-03-22T00:55:24.553Z,3.6
2017-03-22T00:55:43.176Z,3.6
2017-03-22T00:56:01.805Z,3.6
2017-03-22T00:56:20.450Z,3.6
2017-03-22T00:56:39.081Z,3.6
2017-03-22T00:56:57.713Z,3.6
2017-03-22T00:57:16.341Z,3.7
2017-03-22T00:57:34.973Z,3.7
2017-03-22T00:57:53.603Z,3.7
2017-03-22T00:58:12.231Z,3.7
2017-03-22T00:58:30.855Z,3.7
2017-03-22T00:58:49.492Z,3.7
2017-03-22T00:59:08.123Z,3.7
2017-03-22T00:59:26.750Z,3.7
2017-03-22T00:59:45.382Z,3.7
2017-03-22T01:00:04.009Z,3.7
2017-03-22T01:00:22.634Z,3.7
2017-03-22T01:00:41.255Z,3.7
2017-03-22T01:00:59.879Z,3.7
2017-03-22T01:01:18.513Z,3.7
2017-03-22T01:01:37.165Z,3.7
2017-03-22T01:01:55.791Z,3.7
2017-03-22T01:02:14.420Z,3.7
2017-03-22T01:02:33.090Z,3.7
2017-03-22T01:02:51.718Z,3.7
2017-03-22T01:03:10.346Z,3.7
2017-03-22T01:03:28.974Z,3.7
2017-03-22T01:03:47.596Z,3.6
2017-03-22T01:04:06.225Z,3.6
2017-03-22T01:04:24.849Z,3.6
2017-03-22T01:04:43.474Z,3.6
2017-03-22T01:05:02.100Z,3.6
2017-03-22T01:05:20.724Z,3.6
2017-03-22T01:05:39.346Z,3.6
2017-03-22T01:05:58.004Z,3.6
2017-03-22T01:06:16.630Z,3.6
2017-03-22T01:06:35.257Z,3.5
2017-03-22T01:06:53.900Z,3.5
2017-03-22T01:07:12.529Z,3.5
2017-03-22T01:07:31.161Z,3.5
2017-03-22T01:07:49.801Z,3.5
2017-03-22T01:08:08.430Z,3.5
2017-03-22T01:08:27.061Z,3.5
2017-03-22T01:08:45.679Z,3.5
2017-03-22T01:09:04.299Z,3.5
2017-03-22T01:09:22.935Z,3.5
2017-03-22T01:09:41.561Z,3.5
2017-03-22T01:10:00.187Z,3.5
2017-03-22T01:10:18.814Z,3.5
2017-03-22T01:10:37.441Z,3.5
2017-03-22T01:10:56.072Z,3.5
2017-03-22T01:11:14.725Z,3.5
2017-03-22T01:11:33.350Z,3.5
2017-03-22T01:11:51.976Z,3.5
2017-03-22T01:12:10.607Z,3.5
2017-03-22T01:12:29.228Z,3.5
2017-03-22T01:12:47.879Z,3.5
2017-03-22T01:13:06.505Z,3.5
2017-03-22T01:13:25.135Z,3.5
2017-03-22T01:13:43.761Z,3.5
2017-03-22T01:14:02.395Z,3.5
2017-03-22T01:14:21.024Z,3.5
2017-03-22T01:14:39.678Z,3.5
2017-03-22T01:14:58.300Z,3.5
2017-03-22T01:15:16.929Z,3.5
2017-03-22T01:15:35.552Z,3.5
2017-03-22T01:15:54.181Z,3.5
2017-03-22T01:16:12.813Z,3.5
2017-03-22T01:16:31.438Z,3.5
2017-03-22T01:16:50.063Z,3.5
2017-03-22T01:17:08.689Z,3.5
2017-03-22T01:17:27.332Z,3.5
2017-03-22T01:17:45.963Z,3.5
2017-03-22T01:18:04.620Z,3.5
2017-03-22T01:18:23.248Z,3.5
2017-03-22T01:18:41.869Z,3.4
2017-03-22T01:19:00.489Z,3.5
2017-03-22T01:19:19.112Z,3.5
2017-03-22T01:19:37.743Z,3.5
2017-03-22T01:19:56.369Z,3.4
2017-03-22T01:20:14.994Z,3.4
2017-03-22T01:20:33.623Z,3.4
2017-03-22T01:20:52.249Z,3.4
2017-03-22T01:21:10.870Z,3.4
2017-03-22T01:21:29.522Z,3.4
2017-03-22T01:21:48.157Z,3.4
2017-03-22T01:22:06.776Z,3.4
2017-03-22T01:22:25.405Z,3.4
2017-03-22T01:22:44.037Z,3.4
2017-03-22T01:23:02.665Z,3.4
2017-03-22T01:23:21.289Z,3.4
2017-03-22T01:23:39.917Z,3.4
2017-03-22T01:23:58.540Z,3.4
2017-03-22T01:24:17.167Z,3.4
2017-03-22T01:24:35.794Z,3.4
2017-03-22T01:24:54.444Z,3.4
2017-03-22T01:25:13.070Z,3.4
2017-03-22T01:25:31.692Z,3.4
2017-03-22T01:25:50.325Z,3.4
2017-03-22T01:26:08.953Z,3.4
2017-03-22T01:26:27.578Z,3.4
2017-03-22T01:26:46.203Z,3.4
2017-03-22T01:27:04.826Z,3.4
2017-03-22T01:27:23.447Z,3.4
2017-03-22T01:27:42.074Z,3.4
2017-03-22T01:28:00.724Z,3.4
2017-03-22T01:28:19.362Z,3.5
2017-03-22T01:28:37.995Z,3.4
2017-03-22T01:28:56.626Z,3.4
2017-03-22T01:29:15.255Z,3.4
2017-03-22T01:29:33.888Z,3.4
2017-03-22T01:29:52.517Z,3.4
2017-03-22T01:30:11.146Z,3.4
2017-03-22T01:30:29.777Z,3.4
2017-03-22T01:30:48.402Z,3.4
2017-03-22T01:31:07.029Z,3.4
2017-03-22T01:31:25.656Z,3.4
2017-03-22T01:31:44.292Z,3.4
2017-03-22T01:32:02.953Z,3.4
2017-03-22T01:32:21.577Z,3.4
2017-03-22T01:32:40.206Z,3.5
2017-03-22T01:32:58.832Z,3.4
2017-03-22T01:33:17.482Z,3.5
2017-03-22T01:33:36.106Z,3.4
2017-03-22T01:33:54.737Z,3.5
2017-03-22T01:34:13.365Z,3.4
2017-03-22T01:34:31.995Z,3.5
2017-03-22T01:34:50.620Z,3.5
2017-03-22T01:35:09.243Z,3.5
2017-03-22T01:35:27.893Z,3.5
2017-03-22T01:35:46.520Z,3.5
2017-03-22T01:36:05.144Z,3.5
2017-03-22T01:36:23.768Z,3.5
2017-03-22T01:36:42.401Z,3.5
2017-03-22T01:37:01.030Z,3.5
2017-03-22T01:37:19.669Z,3.5
2017-03-22T01:37:38.300Z,3.5
2017-03-22T01:37:56.931Z,3.5
2017-03-22T01:38:15.554Z,3.5
2017-03-22T01:38:34.182Z,3.5
2017-03-22T01:38:52.838Z,3.5
2017-03-22T01:39:11.461Z,3.5
2017-03-22T01:39:30.083Z,3.5
2017-03-22T01:39:48.709Z,3.5
2017-03-22T01:40:07.340Z,3.5
2017-03-22T01:40:25.973Z,3.5
2017-03-22T01:40:44.622Z,3.5
2017-03-22T01:41:03.246Z,3.4
2017-03-22T01:41:21.875Z,3.4
2017-03-22T01:41:40.503Z,3.4
2017-03-22T01:41:59.127Z,3.4
2017-03-22T01:42:17.758Z,3.4
2017-03-22T01:42:36.383Z,3.4
2017-03-22T01:42:55.008Z,3.4
2017-03-22T01:43:13.651Z,3.4
2017-03-22T01:43:32.270Z,3.4
2017-03-22T01:43:50.919Z,3.4
2017-03-22T01:44:09.566Z,3.4
2017-03-22T01:44:28.189Z,3.4
2017-03-22T01:44:46.811Z,3.4
2017-03-22T01:45:05.435Z,3.4
2017-03-22T01:45:24.059Z,3.4
2017-03-22T01:45:42.687Z,3.4
2017-03-22T01:46:01.314Z,3.4
2017-03-22T01:46:19.939Z,3.4
2017-03-22T01:46:38.562Z,3.4
2017-03-22T01:46:57.183Z,3.4
2017-03-22T01:47:15.805Z,3.4
2017-03-22T01:47:34.461Z,3.4
2017-03-22T01:47:53.093Z,3.4
2017-03-22T01:48:11.723Z,3.4
2017-03-22T01:48:30.345Z,3.4
2017-03-22T01:48:48.964Z,3.4
2017-03-22T01:49:07.601Z,3.4
2017-03-22T01:49:26.238Z,3.4
2017-03-22T01:49:44.869Z,3.4
2017-03-22T01:50:03.489Z,3.4
2017-03-22T01:50:22.109Z,3.4
2017-03-22T01:50:40.737Z,3.4
2017-03-22T01:50:59.390Z,3.4
2017-03-22T01:51:18.016Z,3.4
2017-03-22T01:51:36.639Z,3.4
2017-03-22T01:51:55.269Z,3.4
2017-03-22T01:52:13.892Z,3.4
2017-03-22T01:52:32.522Z,3.4
2017-03-22T01:52:51.148Z,3.4
2017-03-22T01:53:09.770Z,3.4
2017-03-22T01:53:28.392Z,3.4
2017-03-22T01:53:47.018Z,3.4
2017-03-22T01:54:05.645Z,3.4
2017-03-22T01:54:24.312Z,3.3
2017-03-22T01:54:42.938Z,3.3
2017-03-22T01:55:01.562Z,3.3
2017-03-22T01:55:20.184Z,3.3
2017-03-22T01:55:38.806Z,3.3
2017-03-22T01:55:57.429Z,3.3
2017-03-22T01:56:16.057Z,3.3
2017-03-22T01:56:34.683Z,3.3
2017-03-22T01:56:53.321Z,3.3
2017-03-22T01:57:11.963Z,3.3
2017-03-22T01:57:30.591Z,3.3
2017-03-22T01:57:49.231Z,3.3
2017-03-22T01:58:07.867Z,3.3
2017-03-22T01:58:26.513Z,3.3
2017-03-22T01:58:45.135Z,3.3
2017-03-22T01:59:03.763Z,3.3
2017-03-22T01:59:22.389Z,3.3
2017-03-22T01:59:41.028Z,3.3
2017-03-22T01:59:59.655Z,3.4
2017-03-22T02:00:18.276Z,3.4
2017-03-22T02:00:36.902Z,3.4
2017-03-22T02:00:55.536Z,3.4
2017-03-22T02:01:14.170Z,3.4
2017-03-22T02:01:32.826Z,3.4
2017-03-22T02:01:51.448Z,3.4
2017-03-22T02:02:10.072Z,3.4
2017-03-22T02:02:28.701Z,3.4
2017-03-22T02:02:47.332Z,3.4
2017-03-22T02:03:05.964Z,3.4
2017-03-22T02:03:24.590Z,3.4
2017-03-22T02:03:43.216Z,3.4
2017-03-22T02:04:01.842Z,3.4
2017-03-22T02:04:20.471Z,3.4
2017-03-22T02:04:39.104Z,3.4
2017-03-22T02:04:57.780Z,3.4
2017-03-22T02:05:16.405Z,3.4
2017-03-22T02:05:35.033Z,3.4
2017-03-22T02:05:53.661Z,3.4
2017-03-22T02:06:12.289Z,3.4
2017-03-22T02:06:30.915Z,3.4
2017-03-22T02:06:49.553Z,3.4
2017-03-22T02:07:08.180Z,3.4
2017-03-22T02:07:26.804Z,3.4
2017-03-22T02:07:45.431Z,3.4
2017-03-22T02:08:04.053Z,3.4
2017-03-22T02:08:22.689Z,3.4
2017-03-22T02:08:41.311Z,3.4
2017-03-22T02:08:59.940Z,3.4
2017-03-22T02:09:18.564Z,3.4
2017-03-22T02:09:37.189Z,3.4
2017-03-22T02:09:55.816Z,3.4
2017-03-22T02:10:14.484Z,3.4
2017-03-22T02:10:33.117Z,3.4
2017-03-22T02:10:51.739Z,3.4
2017-03-22T02:11:10.362Z,3.4
2017-03-22T02:11:28.983Z,3.4
2017-03-22T02:11:47.609Z,3.4
2017-03-22T02:12:06.229Z,3.4
2017-03-22T02:12:24.853Z,3.3
2017-03-22T02:12:43.479Z,3.3
2017-03-22T02:13:02.108Z,3.3
2017-03-22T02:13:20.735Z,3.3
2017-03-22T02:13:39.395Z,3.3
2017-03-22T02:13:58.026Z,3.3
2017-03-22T02:14:16.652Z,3.3
2017-03-22T02:14:35.276Z,3.3
2017-03-22T02:14:53.902Z,3.3
2017-03-22T02:15:12.536Z,3.2
2017-03-22T02:15:31.179Z,3.2
2017-03-22T02:15:49.811Z,3.2
2017-03-22T02:16:08.432Z,3.2
2017-03-22T02:16:27.059Z,3.2
2017-03-22T02:16:45.682Z,3.2
2017-03-22T02:17:04.327Z,3.1
2017-03-22T02:17:22.951Z,3.1
2017-03-22T02:17:41.577Z,3.1
2017-03-22T02:18:00.211Z,3.1
2017-03-22T02:18:18.832Z,3.1
2017-03-22T02:18:37.460Z,3.1
2017-03-22T02:18:56.089Z,3
2017-03-22T02:19:14.713Z,3
2017-03-22T02:19:33.337Z,3
2017-03-22T02:19:51.969Z,3
2017-03-22T02:20:10.598Z,2.9
2017-03-22T02:20:29.246Z,2.9
2017-03-22T02:20:47.891Z,2.9
2017-03-22T02:21:06.519Z,2.9
2017-03-22T02:21:25.144Z,2.9
2017-03-22T02:21:43.767Z,2.9
2017-03-22T02:22:02.393Z,2.9
2017-03-22T02:22:21.020Z,2.9
2017-03-22T02:22:39.649Z,2.9
2017-03-22T02:22:58.276Z,2.8
2017-03-22T02:23:16.917Z,2.8
2017-03-22T02:23:35.539Z,2.8
2017-03-22T02:23:54.184Z,2.8
2017-03-22T02:24:12.813Z,2.8
2017-03-22T02:24:31.439Z,2.8
2017-03-22T02:24:50.068Z,2.8
2017-03-22T02:25:08.700Z,2.8
2017-03-22T02:25:27.325Z,2.8
2017-03-22T02:25:45.952Z,2.8
2017-03-22T02:26:04.587Z,2.8
2017-03-22T02:26:23.209Z,2.8
2017-03-22T02:26:41.834Z,2.8
2017-03-22T02:27:00.455Z,2.8
2017-03-22T02:27:19.098Z,2.8
2017-03-22T02:27:37.735Z,2.8
2017-03-22T02:27:56.358Z,2.8
2017-03-22T02:28:14.983Z,2.8
2017-03-22T02:28:33.608Z,2.8
2017-03-22T02:28:52.257Z,2.8
2017-03-22T02:29:10.881Z,2.8
2017-03-22T02:29:29.509Z,2.8
2017-03-22T02:29:48.140Z,2.8
2017-03-22T02:30:06.770Z,2.8
2017-03-22T02:30:25.393Z,2.8
2017-03-22T02:30:44.014Z,2.8
2017-03-22T02:31:02.670Z,2.8
2017-03-22T02:31:21.307Z,2.8
2017-03-22T02:31:39.929Z,2.8
2017-03-22T02:31:58.554Z,2.8
2017-03-22T02:32:17.180Z,2.8
2017-03-22T02:32:35.803Z,2.8
2017-03-22T02:32:54.438Z,2.7
2017-03-22T02:33:13.068Z,2.7
2017-03-22T02:33:31.698Z,2.7
2017-03-22T02:33:50.338Z,2.7
2017-03-22T02:34:08.964Z,2.7
2017-03-22T02:34:27.627Z,2.7
2017-03-22T02:34:46.251Z,2.7
2017-03-22T02:35:04.882Z,2.7
2017-03-22T02:35:23.511Z,2.7
2017-03-22T02:35:42.135Z,2.7
2017-03-22T02:36:00.757Z,2.7
2017-03-22T02:36:19.401Z,2.7
2017-03-22T02:36:38.028Z,2.7
2017-03-22T02:36:56.652Z,2.7
2017-03-22T02:37:15.275Z,2.7
2017-03-22T02:37:33.902Z,2.7
2017-03-22T02:37:52.525Z,2.6
2017-03-22T02:38:11.154Z,2.6
2017-03-22T02:38:29.776Z,2.6
2017-03-22T02:38:48.405Z,2.7
2017-03-22T02:39:07.039Z,2.7
2017-03-22T02:39:25.668Z,2.7
2017-03-22T02:39:44.323Z,2.7
2017-03-22T02:40:02.943Z,2.7
2017-03-22T02:40:21.575Z,2.7
2017-03-22T02:40:40.201Z,2.7
2017-03-22T02:40:58.826Z,2.7
2017-03-22T02:41:17.453Z,2.7
2017-03-22T02:41:36.074Z,2.7
2017-03-22T02:41:54.721Z,2.7
2017-03-22T02:42:13.348Z,2.7
2017-03-22T02:42:31.977Z,2.7
2017-03-22T02:42:50.605Z,2.7
2017-03-22T02:43:09.254Z,2.7
2017-03-22T02:43:27.880Z,2.7
2017-03-22T02:43:46.510Z,2.7
2017-03-22T02:44:05.151Z,2.7
2017-03-22T02:44:23.778Z,2.8
2017-03-22T02:44:42.407Z,2.8
2017-03-22T02:45:01.031Z,2.8
2017-03-22T02:45:19.661Z,2.8
2017-03-22T02:45:38.288Z,2.8
2017-03-22T02:45:56.912Z,2.8
2017-03-22T02:46:15.535Z,2.8
2017-03-22T02:46:34.183Z,2.8
2017-03-22T02:46:52.805Z,2.8
2017-03-22T02:47:11.441Z,2.8
2017-03-22T02:47:30.064Z,2.8
2017-03-22T02:47:48.690Z,2.8
2017-03-22T02:48:07.316Z,2.8
2017-03-22T02:48:25.943Z,2.7
2017-03-22T02:48:44.576Z,2.7
2017-03-22T02:49:03.216Z,2.7
2017-03-22T02:49:21.843Z,2.7
2017-03-22T02:49:40.471Z,2.7
2017-03-22T02:49:59.117Z,2.7
2017-03-22T02:50:17.745Z,2.7
2017-03-22T02:50:36.371Z,2.7
2017-03-22T02:50:54.999Z,2.7
2017-03-22T02:51:13.624Z,2.7
2017-03-22T02:51:32.247Z,2.7
2017-03-22T02:51:50.869Z,2.7
2017-03-22T02:52:09.500Z,2.7
2017-03-22T02:52:28.136Z,2.7
2017-03-22T02:52:46.765Z,2.7
2017-03-22T02:53:05.395Z,2.7
2017-03-22T02:53:24.032Z,2.7
2017-03-22T02:53:42.661Z,2.7
2017-03-22T02:54:01.292Z,2.7
2017-03-22T02:54:19.919Z,2.7
2017-03-22T02:54:38.547Z,2.7
2017-03-22T02:54:57.177Z,2.7
2017-03-22T02:55:15.806Z,2.7
2017-03-22T02:55:34.436Z,2.7
2017-03-22T02:55:53.061Z,2.7
2017-03-22T02:56:11.690Z,2.7
2017-03-22T02:56:30.311Z,2.7
2017-03-22T02:56:48.940Z,2.7
2017-03-22T02:57:07.599Z,2.7
2017-03-22T02:57:26.226Z,2.7
2017-03-22T02:57:44.876Z,2.7
2017-03-22T02:58:03.501Z,2.7
2017-03-22T02:58:22.130Z,2.7
2017-03-22T02:58:40.756Z,2.8
2017-03-22T02:58:59.384Z,2.8
2017-03-22T02:59:18.033Z,2.8
2017-03-22T02:59:36.659Z,2.8
2017-03-22T02:59:55.285Z,2.8
2017-03-22T03:00:13.922Z,2.8
2017-03-22T03:00:32.582Z,2.8
2017-03-22T03:00:51.210Z,2.8
2017-03-22T03:01:09.840Z,2.8
2017-03-22T03:01:28.465Z,2.8
2017-03-22T03:01:47.097Z,2.8
2017-03-22T03:02:05.727Z,2.9
2017-03-22T03:02:24.354Z,2.9
2017-03-22T03:02:42.982Z,2.9
2017-03-22T03:03:01.612Z,2.9
2017-03-22T03:03:20.238Z,2.9
2017-03-22T03:03:38.860Z,2.9
2017-03-22T03:03:57.510Z,2.9
2017-03-22T03:04:16.137Z,3
2017-03-22T03:04:34.762Z,3
2017-03-22T03:04:53.383Z,3
2017-03-22T03:05:12.010Z,3
2017-03-22T03:05:30.632Z,3
2017-03-22T03:05:49.276Z,3
2017-03-22T03:06:07.905Z,3
2017-03-22T03:06:26.527Z,3
2017-03-22T03:06:45.154Z,3
2017-03-22T03:07:03.784Z,3
2017-03-22T03:07:22.417Z,3
2017-03-22T03:07:41.048Z,3
2017-03-22T03:07:59.673Z,3
2017-03-22T03:08:18.318Z,3
2017-03-22T03:08:36.939Z,3
2017-03-22T03:08:55.568Z,3
2017-03-22T03:09:14.224Z,3
2017-03-22T03:09:32.846Z,3
2017-03-22T03:09:51.469Z,3
2017-03-22T03:10:10.098Z,3
2017-03-22T03:10:28.727Z,3
2017-03-22T03:10:47.351Z,3
2017-03-22T03:11:05.985Z,3.1
2017-03-22T03:11:24.615Z,3.1
2017-03-22T03:11:43.237Z,3.1
2017-03-22T03:12:01.861Z,3.1
2017-03-22T03:12:20.486Z,3.1
2017-03-22T03:12:39.143Z,3.1
2017-03-22T03:12:57.768Z,3.1
2017-03-22T03:13:16.391Z,3.1
2017-03-22T03:13:35.037Z,3.1
2017-03-22T03:13:53.664Z,3.1
2017-03-22T03:14:12.297Z,3
2017-03-22T03:14:30.934Z,3
2017-03-22T03:14:49.559Z,3
2017-03-22T03:15:08.192Z,3
2017-03-22T03:15:26.816Z,3
2017-03-22T03:15:45.444Z,3
2017-03-22T03:16:04.099Z,2.9
2017-03-22T03:16:22.725Z,2.9
2017-03-22T03:16:41.361Z,2.9
2017-03-22T03:16:59.982Z,2.9
2017-03-22T03:17:18.606Z,2.9
2017-03-22T03:17:37.239Z,2.9
2017-03-22T03:17:55.866Z,2.9
2017-03-22T03:18:14.496Z,2.9
2017-03-22T03:18:33.124Z,2.8
2017-03-22T03:18:51.769Z,2.8
2017-03-22T03:19:10.397Z,2.8
2017-03-22T03:19:29.051Z,2.8
2017-03-22T03:19:47.676Z,2.8
2017-03-22T03:20:06.302Z,2.8
2017-03-22T03:20:24.930Z,2.8
2017-03-22T03:20:43.558Z,2.8
2017-03-22T03:21:02.184Z,2.8
2017-03-22T03:21:20.807Z,2.8
2017-03-22T03:21:39.434Z,2.8
2017-03-22T03:21:58.059Z,2.8
2017-03-22T03:22:16.682Z,2.8
2017-03-22T03:22:35.309Z,2.8
2017-03-22T03:22:53.954Z,2.8
2017-03-22T03:23:12.573Z,2.8
2017-03-22T03:23:31.200Z,2.8
2017-03-22T03:23:49.829Z,2.8
2017-03-22T03:24:08.461Z,2.9
2017-03-22T03:24:27.091Z,2.9
2017-03-22T03:24:45.722Z,2.9
2017-03-22T03:25:04.354Z,2.9
2017-03-22T03:25:22.976Z,2.9
2017-03-22T03:25:41.598Z,2.9
2017-03-22T03:26:00.225Z,2.9
2017-03-22T03:26:18.862Z,2.8
2017-03-22T03:26:37.495Z,2.8
2017-03-22T03:26:56.123Z,2.8
2017-03-22T03:27:14.762Z,2.8
2017-03-22T03:27:33.392Z,2.8
2017-03-22T03:27:52.017Z,2.8
2017-03-22T03:28:10.646Z,2.8
2017-03-22T03:28:29.277Z,2.8
2017-03-22T03:28:47.903Z,2.8
2017-03-22T03:29:06.528Z,2.8
2017-03-22T03:29:25.176Z,2.8
2017-03-22T03:29:43.832Z,2.8
2017-03-22T03:30:02.466Z,2.9
2017-03-22T03:30:21.089Z,2.9
2017-03-22T03:30:39.716Z,2.9
2017-03-22T03:30:58.340Z,2.9
2017-03-22T03:31:16.972Z,2.9
2017-03-22T03:31:35.604Z,2.9
2017-03-22T03:31:54.231Z,2.9
2017-03-22T03:32:12.862Z,2.9
2017-03-22T03:32:31.485Z,2.9
2017-03-22T03:32:50.108Z,2.9
2017-03-22T03:33:08.728Z,2.9
2017-03-22T03:33:27.378Z,2.9
2017-03-22T03:33:46.002Z,2.9
2017-03-22T03:34:04.629Z,2.9
2017-03-22T03:34:23.254Z,2.9
2017-03-22T03:34:41.886Z,3
2017-03-22T03:35:00.513Z,3
2017-03-22T03:35:19.152Z,3
2017-03-22T03:35:37.775Z,3
2017-03-22T03:35:56.401Z,3
2017-03-22T03:36:15.028Z,3
2017-03-22T03:36:33.660Z,3
2017-03-22T03:36:52.292Z,3
2017-03-22T03:37:10.914Z,3
2017-03-22T03:37:29.540Z,3
2017-03-22T03:37:48.163Z,3.1
2017-03-22T03:38:06.784Z,3.1
2017-03-22T03:38:25.418Z,3.1
2017-03-22T03:38:44.076Z,3.1
2017-03-22T03:39:02.703Z,3
2017-03-22T03:39:21.329Z,3
2017-03-22T03:39:39.955Z,3
2017-03-22T03:39:58.598Z,3
2017-03-22T03:40:17.229Z,3
2017-03-22T03:40:35.858Z,3
2017-03-22T03:40:54.482Z,3
2017-03-22T03:41:13.106Z,3
2017-03-22T03:41:31.728Z,3
2017-03-22T03:41:50.351Z,3
2017-03-22T03:42:09.002Z,3
2017-03-22T03:42:27.626Z,3
2017-03-22T03:42:46.253Z,3
2017-03-22T03:43:04.876Z,3
2017-03-22T03:43:23.507Z,3
2017-03-22T03:43:42.132Z,3
2017-03-22T03:44:00.755Z,3
2017-03-22T03:44:19.387Z,3
2017-03-22T03:44:38.017Z,3
2017-03-22T03:44:56.673Z,3
2017-03-22T03:45:15.307Z,3
2017-03-22T03:45:33.962Z,3
2017-03-22T03:45:52.584Z,3
2017-03-22T03:46:11.206Z,3
2017-03-22T03:46:29.833Z,3
2017-03-22T03:46:48.463Z,3
2017-03-22T03:47:07.090Z,3.1
2017-03-22T03:47:25.711Z,3.1
2017-03-22T03:47:44.331Z,3.1
2017-03-22T03:48:02.954Z,3.1
2017-03-22T03:48:21.583Z,3
2017-03-22T03:48:40.222Z,3
2017-03-22T03:48:58.875Z,3
2017-03-22T03:49:17.501Z,3
2017-03-22T03:49:36.122Z,3
2017-03-22T03:49:54.747Z,3
2017-03-22T03:50:13.371Z,3
2017-03-22T03:50:32.014Z,3
2017-03-22T03:50:50.638Z,3
2017-03-22T03:51:09.263Z,2.9
2017-03-22T03:51:27.895Z,2.9
2017-03-22T03:51:46.526Z,2.9
2017-03-22T03:52:05.156Z,2.9
2017-03-22T03:52:23.800Z,2.9
2017-03-22T03:52:42.429Z,2.8
2017-03-22T03:53:01.052Z,2.8
2017-03-22T03:53:19.684Z,2.8
2017-03-22T03:53:38.321Z,2.8
2017-03-22T03:53:56.953Z,2.8
2017-03-22T03:54:15.579Z,2.8
2017-03-22T03:54:34.199Z,2.8
2017-03-22T03:54:52.824Z,2.7
2017-03-22T03:55:11.452Z,2.7
2017-03-22T03:55:30.085Z,2.7
2017-03-22T03:55:48.726Z,2.7
2017-03-22T03:56:07.362Z,2.7
2017-03-22T03:56:25.985Z,2.7
2017-03-22T03:56:44.609Z,2.7
2017-03-22T03:57:03.229Z,2.7
2017-03-22T03:57:21.858Z,2.7
2017-03-22T03:57:40.486Z,2.7
2017-03-22T03:57:59.109Z,2.7
2017-03-22T03:58:17.735Z,2.6
2017-03-22T03:58:36.360Z,2.6
2017-03-22T03:58:54.988Z,2.6
2017-03-22T03:59:13.615Z,2.6
2017-03-22T03:59:32.266Z,2.7
2017-03-22T03:59:50.889Z,2.7
2017-03-22T04:00:09.542Z,2.7
2017-03-22T04:00:28.164Z,2.6
2017-03-22T04:00:46.791Z,2.6
2017-03-22T04:01:05.437Z,2.6
2017-03-22T04:01:24.073Z,2.6
2017-03-22T04:01:42.704Z,2.6
2017-03-22T04:02:01.334Z,2.6
2017-03-22T04:02:19.966Z,2.6
2017-03-22T04:02:38.593Z,2.6
2017-03-22T04:02:57.250Z,2.6
2017-03-22T04:03:15.874Z,2.6
2017-03-22T04:03:34.502Z,2.6
2017-03-22T04:03:53.135Z,2.6
2017-03-22T04:04:11.763Z,2.6
2017-03-22T04:04:30.387Z,2.6
2017-03-22T04:04:49.030Z,2.5
2017-03-22T04:05:07.651Z,2.5
2017-03-22T04:05:26.278Z,2.5
2017-03-22T04:05:44.909Z,2.5
2017-03-22T04:06:03.531Z,2.5
2017-03-22T04:06:22.167Z,2.5
2017-03-22T04:06:40.791Z,2.5
2017-03-22T04:06:59.417Z,2.5
2017-03-22T04:07:18.042Z,2.5
2017-03-22T04:07:36.666Z,2.5
2017-03-22T04:07:55.291Z,2.5
2017-03-22T04:08:13.943Z,2.5
2017-03-22T04:08:32.567Z,2.5
2017-03-22T04:08:51.199Z,2.5
2017-03-22T04:09:09.832Z,2.5
2017-03-22T04:09:28.453Z,2.5
2017-03-22T04:09:47.078Z,2.5
2017-03-22T04:10:05.701Z,2.4
2017-03-22T04:10:24.324Z,2.4
2017-03-22T04:10:42.949Z,2.4
2017-03-22T04:11:01.572Z,2.4
2017-03-22T04:11:20.194Z,2.4
2017-03-22T04:11:38.866Z,2.4
2017-03-22T04:11:57.497Z,2.4
2017-03-22T04:12:16.127Z,2.4
2017-03-22T04:12:34.751Z,2.4
2017-03-22T04:12:53.373Z,2.4
2017-03-22T04:13:12.002Z,2.4
2017-03-22T04:13:30.627Z,2.4
2017-03-22T04:13:49.257Z,2.4
2017-03-22T04:14:07.883Z,2.4
2017-03-22T04:14:26.502Z,2.4
2017-03-22T04:14:45.122Z,2.4
2017-03-22T04:15:03.771Z,2.4
2017-03-22T04:15:22.415Z,2.4
2017-03-22T04:15:41.040Z,2.4
2017-03-22T04:15:59.667Z,2.4
2017-03-22T04:16:18.288Z,2.4
2017-03-22T04:16:36.913Z,2.4
2017-03-22T04:16:55.541Z,2.4
2017-03-22T04:17:14.168Z,2.3
2017-03-22T04:17:32.794Z,2.4
2017-03-22T04:17:51.421Z,2.3
2017-03-22T04:18:10.053Z,2.3